Time;durP1;ratioP1;P1;durP2;ratioP2;P2;SDS_P1;SDS_P2;PMS_P1;PMS_P2;Temp;Humidity;BMP_temperature;BMP_pressure;BME280_temperature;BME280_humidity;BME280_pressure;Samples;Min_cycle;Max_cycle;Signal;HPM_P1;HPM_P2
2023/05/15 00:01:32;;;;;;;;;;;;;;;12.85;70.39;97531.38;5080625;28;19950;-59
2023/05/15 00:04:20;;;;;;;;;;;;;;;12.75;70.61;97531.78;5083810;28;20021;-58
2023/05/15 00:07:09;;;;;;;;;;;;;;;12.76;70.21;97527.94;5077933;28;19942;-58
2023/05/15 00:09:57;;;;;;;;;;;;;;;12.72;70.33;97530.50;5085336;28;19946;-59
2023/05/15 00:12:46;;;;;;;;;;;;;;;12.68;71.13;97528.81;5086814;28;20422;-59
2023/05/15 00:15:34;;;;;;;;;;;;;;;12.66;71.33;97531.06;5086518;28;20439;-60
2023/05/15 00:18:22;;;;;;;;;;;;;;;12.63;71.67;97526.28;5093472;28;19937;-58
2023/05/15 00:21:10;;;;;;;;;;;;;;;12.65;72.11;97534.91;5084605;28;19939;-58
2023/05/15 00:23:58;;;;;;;;;;;;;;;12.49;72.68;97538.25;5099929;28;19938;-60
2023/05/15 00:26:47;;;;;;;;;;;;;;;12.39;73.41;97532.41;5093609;28;20362;-59
2023/05/15 00:29:37;;;;;;;;;;;;;;;12.31;73.76;97532.16;5092950;28;19954;-59
2023/05/15 00:32:26;;;;;;;;;;;;;;;12.29;74.00;97528.13;5098055;28;19935;-59
2023/05/15 00:35:15;;;;;;;;;;;;;;;12.29;74.48;97528.13;5085387;28;19946;-60
2023/05/15 00:38:03;;;;;;;;;;;;;;;12.22;74.63;97525.94;5092376;28;19934;-60
2023/05/15 00:40:51;;;;;;;;;;;;;;;12.18;74.96;97521.50;5081872;28;20037;-59
2023/05/15 00:43:40;;;;;;;;;;;;;;;12.24;74.65;97520.97;5096484;28;20085;-59
2023/05/15 00:46:29;;;;;;;;;;;;;;;12.17;75.31;97520.69;5092670;28;20397;-59
2023/05/15 00:49:18;;;;;;;;;;;;;;;12.16;75.04;97518.31;5080157;28;20062;-59
2023/05/15 00:52:07;;;;;;;;;;;;;;;12.19;75.21;97517.63;5083647;28;19945;-59
2023/05/15 00:54:55;;;;;;;;;;;;;;;12.11;75.22;97511.13;5084506;28;20455;-58
2023/05/15 00:57:45;;;;;;;;;;;;;;;12.16;75.10;97504.69;5084452;28;19966;-58
2023/05/15 01:00:33;;;;;;;;;;;;;;;12.14;74.90;97505.00;5098545;28;19935;-59
2023/05/15 01:03:22;;;;;;;;;;;;;;;12.13;75.20;97502.63;5083241;28;19950;-59
2023/05/15 01:06:11;;;;;;;;;;;;;;;12.14;75.30;97498.75;5105461;27;20057;-59
2023/05/15 01:09:00;;;;;;;;;;;;;;;12.18;75.15;97500.50;5084899;28;19977;-59
2023/05/15 01:11:49;;;;;;;;;;;;;;;12.18;75.43;97499.72;5083425;28;19950;-61
2023/05/15 01:14:38;;;;;;;;;;;;;;;12.11;75.52;97491.28;5077079;28;20561;-58
2023/05/15 01:17:26;;;;;;;;;;;;;;;12.09;75.63;97498.97;5081582;28;19958;-59
2023/05/15 01:20:17;;;;;;;;;;;;;;;12.09;75.68;97501.69;5081291;28;20430;-59
2023/05/15 01:23:10;;;;;;;;;;;;;;;12.10;75.82;97495.13;5070094;28;20682;-59
2023/05/15 01:26:21;;;;;;;;;;;;;;;12.00;75.91;97496.31;5091028;28;20140;-59
2023/05/15 01:29:12;;;;;;;;;;;;;;;11.90;76.34;97502.13;5091075;28;19935;-58
2023/05/15 01:32:02;;;;;;;;;;;;;;;11.81;76.49;97507.59;5098513;28;20041;-59
2023/05/15 01:34:52;;;;;;;;;;;;;;;11.78;76.47;97509.06;5111329;27;20096;-60
2023/05/15 01:37:41;;;;;;;;;;;;;;;11.75;76.42;97506.19;5098615;28;19934;-58
2023/05/15 01:40:29;;;;;;;;;;;;;;;11.70;76.32;97512.63;5072130;28;19946;-60
2023/05/15 01:43:19;;;;;;;;;;;;;;;11.65;76.59;97506.56;5085064;28;20447;-62
2023/05/15 01:46:08;;;;;;;;;;;;;;;11.59;76.67;97505.94;5095805;27;19938;-63
2023/05/15 01:48:56;;;;;;;;;;;;;;;11.63;76.15;97501.47;5086490;28;19965;-58
2023/05/15 01:51:44;;;;;;;;;;;;;;;11.54;76.57;97501.50;5096939;28;20084;-58
2023/05/15 01:54:33;;;;;;;;;;;;;;;11.52;76.58;97501.03;5094964;28;19920;-64
2023/05/15 01:57:21;;;;;;;;;;;;;;;11.49;76.61;97511.75;5095810;28;19965;-59
2023/05/15 02:00:09;;;;;;;;;;;;;;;11.42;76.84;97498.66;5083563;28;19931;-59
2023/05/15 02:03:04;;;;;;;;;;;;;;;11.37;77.01;97496.13;5085861;28;19964;-59
2023/05/15 02:05:55;;;;;;;;;;;;;;;11.40;77.13;97500.94;5089627;28;19951;-59
2023/05/15 02:08:43;;;;;;;;;;;;;;;11.37;77.08;97506.22;5096308;28;20581;-61
2023/05/15 02:11:31;;;;;;;;;;;;;;;11.34;77.21;97501.41;5082468;28;19958;-60
2023/05/15 02:14:19;;;;;;;;;;;;;;;11.30;77.43;97498.56;5087912;28;20099;-60
2023/05/15 02:17:07;;;;;;;;;;;;;;;11.22;77.38;97496.66;5111624;27;20389;-60
2023/05/15 02:19:57;;;;;;;;;;;;;;;11.23;77.60;97490.88;5097428;28;19938;-59
2023/05/15 02:22:45;;;;;;;;;;;;;;;11.31;76.89;97493.94;5099842;28;19969;-59
2023/05/15 02:25:38;;;;;;;;;;;;;;;11.29;77.12;97488.78;5119911;27;19972;-58
2023/05/15 02:28:28;;;;;;;;;;;;;;;11.22;77.30;97497.47;5082764;28;20385;-58
2023/05/15 02:31:18;;;;;;;;;;;;;;;11.17;77.41;97494.13;5087996;28;19946;-59
2023/05/15 02:34:09;;;;;;;;;;;;;;;11.11;77.43;97489.97;5093523;28;19936;-60
2023/05/15 02:36:58;;;;;;;;;;;;;;;11.09;77.83;97490.31;5098513;28;19990;-59
2023/05/15 02:39:48;;;;;;;;;;;;;;;11.11;77.72;97484.56;5109785;27;20371;-59
2023/05/15 02:42:36;;;;;;;;;;;;;;;11.05;77.77;97477.69;5085477;28;19959;-60
2023/05/15 02:45:25;;;;;;;;;;;;;;;11.06;77.93;97477.38;5085309;28;20748;-59
2023/05/15 02:48:13;;;;;;;;;;;;;;;11.08;77.82;97477.03;5112029;27;20020;-58
2023/05/15 02:51:01;;;;;;;;;;;;;;;11.04;77.85;97484.25;5090538;28;19934;-58
2023/05/15 02:53:51;;;;;;;;;;;;;;;10.96;77.89;97473.06;5094865;28;23617;-61
2023/05/15 02:56:48;;;;;;;;;;;;;;;10.97;78.02;97469.25;5084369;28;19996;-59
2023/05/15 02:59:36;;;;;;;;;;;;;;;10.97;78.08;97465.72;5086412;28;20019;-59
2023/05/15 03:02:25;;;;;;;;;;;;;;;10.99;78.09;97461.56;5080970;28;19942;-58
2023/05/15 03:05:12;;;;;;;;;;;;;;;10.99;78.08;97464.28;5085181;28;19935;-58
2023/05/15 03:08:01;;;;;;;;;;;;;;;11.00;78.15;97465.88;5084132;28;19920;-58
2023/05/15 03:10:50;;;;;;;;;;;;;;;10.99;77.91;97464.28;5081256;28;20037;-59
2023/05/15 03:13:41;;;;;;;;;;;;;;;10.96;78.24;97462.19;5071135;28;20084;-59
2023/05/15 03:16:29;;;;;;;;;;;;;;;10.95;78.21;97462.53;5100653;27;19928;-60
2023/05/15 03:19:18;;;;;;;;;;;;;;;10.97;78.52;97463.81;5081829;28;19970;-58
2023/05/15 03:22:06;;;;;;;;;;;;;;;11.04;77.96;97468.75;5111564;27;19958;-59
2023/05/15 03:24:54;;;;;;;;;;;;;;;10.99;77.96;97467.00;5082290;28;19953;-60
2023/05/15 03:27:44;;;;;;;;;;;;;;;10.97;78.21;97457.56;5096271;27;19941;-58
2023/05/15 03:30:32;;;;;;;;;;;;;;;10.98;78.11;97459.97;5083031;28;19939;-58
2023/05/15 03:33:20;;;;;;;;;;;;;;;11.09;77.85;97460.41;5110887;27;20025;-59
2023/05/15 03:36:11;;;;;;;;;;;;;;;11.07;77.88;97456.41;5096381;28;20444;-59
2023/05/15 03:38:59;;;;;;;;;;;;;;;11.04;78.00;97465.22;5081360;28;19945;-59
2023/05/15 03:41:47;;;;;;;;;;;;;;;11.07;78.11;97470.00;5083395;28;19923;-59
2023/05/15 03:44:36;;;;;;;;;;;;;;;11.01;78.13;97466.66;5080921;28;19965;-61
2023/05/15 03:47:25;;;;;;;;;;;;;;;11.02;77.74;97466.34;5077379;28;19920;-58
2023/05/15 03:50:13;;;;;;;;;;;;;;;10.97;77.59;97471.97;5084369;28;20064;-59
2023/05/15 03:53:01;;;;;;;;;;;;;;;10.88;77.82;97465.75;5097571;28;19935;-60
2023/05/15 03:55:49;;;;;;;;;;;;;;;10.81;78.11;97470.06;5082527;28;19938;-59
2023/05/15 03:58:37;;;;;;;;;;;;;;;10.73;78.39;97467.06;5078786;28;19935;-59
2023/05/15 04:01:27;;;;;;;;;;;;;;;10.69;78.66;97454.44;5081927;28;19935;-58
2023/05/15 04:04:15;;;;;;;;;;;;;;;10.70;78.54;97456.81;5069613;28;19947;-60
2023/05/15 04:07:04;;;;;;;;;;;;;;;10.73;78.68;97455.41;5085085;28;20029;-60
2023/05/15 04:09:53;;;;;;;;;;;;;;;10.79;78.35;97456.81;5077148;28;19935;-58
2023/05/15 04:12:41;;;;;;;;;;;;;;;10.78;78.40;97465.31;5087547;28;19963;-58
2023/05/15 04:15:29;;;;;;;;;;;;;;;10.79;78.63;97462.25;5071376;28;19938;-58
2023/05/15 04:18:18;;;;;;;;;;;;;;;10.85;78.67;97466.38;5073397;28;19925;-59
2023/05/15 04:21:06;;;;;;;;;;;;;;;10.92;78.73;97460.44;5075930;28;20052;-63
2023/05/15 04:23:54;;;;;;;;;;;;;;;10.97;78.18;97466.53;5080576;28;19965;-58
2023/05/15 04:26:42;;;;;;;;;;;;;;;11.02;78.33;97469.09;5066899;28;20163;-60
2023/05/15 04:29:31;;;;;;;;;;;;;;;11.11;77.63;97462.81;5088557;28;19924;-58
2023/05/15 04:32:19;;;;;;;;;;;;;;;11.13;77.43;97460.53;5089031;28;19939;-60
2023/05/15 04:35:11;;;;;;;;;;;;;;;11.18;77.51;97461.16;5088194;28;20454;-61
2023/05/15 04:37:59;;;;;;;;;;;;;;;11.19;77.40;97459.25;5095771;28;20327;-58
2023/05/15 04:40:47;;;;;;;;;;;;;;;11.20;77.38;97452.69;5076397;28;20431;-62
2023/05/15 04:43:35;;;;;;;;;;;;;;;11.15;77.72;97458.31;5076429;28;20049;-60
2023/05/15 04:46:23;;;;;;;;;;;;;;;11.16;77.73;97454.47;5086940;28;20303;-61
2023/05/15 04:49:12;;;;;;;;;;;;;;;11.17;78.05;97461.50;5113103;27;19943;-60
2023/05/15 04:52:01;;;;;;;;;;;;;;;11.14;78.27;97456.72;5094650;28;20017;-60
2023/05/15 04:54:51;;;;;;;;;;;;;;;11.11;78.73;97458.16;5097131;28;19934;-60
2023/05/15 04:57:39;;;;;;;;;;;;;;;11.22;78.76;97459.38;5098350;28;19930;-59
2023/05/15 05:00:28;;;;;;;;;;;;;;;11.30;78.20;97463.22;5085262;28;19954;-57
2023/05/15 05:03:16;;;;;;;;;;;;;;;11.35;78.21;97462.25;5080695;28;19942;-58
2023/05/15 05:06:04;;;;;;;;;;;;;;;11.35;78.30;97463.03;5082604;28;21199;-59
2023/05/15 05:08:54;;;;;;;;;;;;;;;11.33;78.43;97459.81;5092152;28;20355;-59
2023/05/15 05:11:44;;;;;;;;;;;;;;;11.37;78.25;97449.91;5087381;28;20612;-61
2023/05/15 05:14:32;;;;;;;;;;;;;;;11.45;77.97;97464.56;5087249;28;20491;-61
2023/05/15 05:17:20;;;;;;;;;;;;;;;11.54;77.29;97459.88;5083214;28;19965;-59
2023/05/15 05:20:12;;;;;;;;;;;;;;;11.60;76.54;97461.28;5085709;28;20478;-60
2023/05/15 05:23:00;;;;;;;;;;;;;;;11.64;76.11;97458.72;5069593;28;19998;-60
2023/05/15 05:25:50;;;;;;;;;;;;;;;11.72;76.06;97458.69;5057093;28;20027;-60
2023/05/15 05:28:38;;;;;;;;;;;;;;;11.77;76.15;97460.38;5066165;28;20598;-57
2023/05/15 05:31:26;;;;;;;;;;;;;;;11.85;76.09;97465.03;5046809;28;20500;-58
2023/05/15 05:34:14;;;;;;;;;;;;;;;11.92;75.62;97462.56;5064048;28;20459;-58
2023/05/15 05:37:02;;;;;;;;;;;;;;;11.88;75.84;97463.56;5066312;28;19935;-61
2023/05/15 05:39:50;;;;;;;;;;;;;;;11.84;76.12;97463.44;5051308;28;19942;-59
2023/05/15 05:42:40;;;;;;;;;;;;;;;11.75;75.93;97459.94;5045954;28;19972;-58
2023/05/15 05:45:29;;;;;;;;;;;;;;;11.62;76.61;97471.88;5058070;28;20266;-58
2023/05/15 05:48:17;;;;;;;;;;;;;;;11.66;76.97;97472.78;5052396;28;19935;-59
2023/05/15 05:51:05;;;;;;;;;;;;;;;11.71;76.76;97464.44;5065051;28;20416;-59
2023/05/15 05:53:53;;;;;;;;;;;;;;;11.76;76.60;97461.53;5065332;28;19938;-60
2023/05/15 05:56:41;;;;;;;;;;;;;;;11.82;76.13;97465.66;5065556;28;19942;-59
2023/05/15 05:59:31;;;;;;;;;;;;;;;11.96;75.95;97460.00;5066161;28;20403;-58
2023/05/15 06:02:19;;;;;;;;;;;;;;;12.13;74.85;97462.56;5062765;28;20435;-59
2023/05/15 06:05:08;;;;;;;;;;;;;;;12.23;74.69;97458.66;5049929;28;20479;-62
2023/05/15 06:07:56;;;;;;;;;;;;;;;12.40;74.50;97453.06;5065886;28;20021;-59
2023/05/15 06:10:45;;;;;;;;;;;;;;;12.61;73.65;97449.50;5051522;28;19945;-58
2023/05/15 06:13:33;;;;;;;;;;;;;;;12.67;73.14;97453.63;5064980;28;20368;-58
2023/05/15 06:16:22;;;;;;;;;;;;;;;12.61;72.59;97455.75;5064573;28;20638;-57
2023/05/15 06:19:11;;;;;;;;;;;;;;;12.60;72.63;97454.16;5048197;28;19935;-58
2023/05/15 06:21:59;;;;;;;;;;;;;;;12.62;72.73;97453.81;5057905;28;20610;-58
2023/05/15 06:24:47;;;;;;;;;;;;;;;12.77;72.73;97455.91;5046395;28;20036;-57
2023/05/15 06:27:35;;;;;;;;;;;;;;;12.83;72.32;97455.38;5062898;28;19925;-59
2023/05/15 06:30:23;;;;;;;;;;;;;;;12.95;72.08;97449.16;5058556;28;19934;-60
2023/05/15 06:33:13;;;;;;;;;;;;;;;13.10;71.23;97453.16;5049896;28;19955;-58
2023/05/15 06:36:01;;;;;;;;;;;;;;;13.11;71.45;97450.09;5064019;28;19978;-61
2023/05/15 06:38:50;;;;;;;;;;;;;;;13.18;71.09;97456.91;5057547;28;20029;-58
2023/05/15 06:41:38;;;;;;;;;;;;;;;13.30;70.90;97451.50;5062421;28;20464;-59
2023/05/15 06:44:32;;;;;;;;;;;;;;;13.43;70.72;97446.88;5043049;28;19965;-58
2023/05/15 06:47:20;;;;;;;;;;;;;;;13.55;69.78;97447.66;5053552;28;19936;-58
2023/05/15 06:50:10;;;;;;;;;;;;;;;13.66;68.85;97439.78;5058488;28;19936;-62
2023/05/15 06:52:58;;;;;;;;;;;;;;;13.69;68.28;97447.31;5044171;28;19932;-59
2023/05/15 06:55:49;;;;;;;;;;;;;;;13.87;67.96;97453.31;5052712;28;19935;-59
2023/05/15 06:58:37;;;;;;;;;;;;;;;14.11;67.54;97447.81;5051095;28;20013;-60
2023/05/15 07:01:25;;;;;;;;;;;;;;;14.14;66.67;97451.78;5063928;28;19935;-60
2023/05/15 07:04:13;;;;;;;;;;;;;;;14.19;66.17;97454.25;5049535;28;19950;-59
2023/05/15 07:07:03;;;;;;;;;;;;;;;14.32;65.62;97449.53;5059794;28;20428;-62
2023/05/15 07:09:51;;;;;;;;;;;;;;;14.27;65.04;97455.25;5052633;28;20544;-58
2023/05/15 07:12:39;;;;;;;;;;;;;;;14.32;65.44;97447.59;5043496;28;19921;-58
2023/05/15 07:15:27;;;;;;;;;;;;;;;14.30;65.56;97446.38;5044923;28;19959;-58
2023/05/15 07:18:15;;;;;;;;;;;;;;;14.38;65.25;97445.41;5061393;28;19990;-59
2023/05/15 07:21:04;;;;;;;;;;;;;;;14.49;64.76;97443.84;5061972;28;19981;-59
2023/05/15 07:23:53;;;;;;;;;;;;;;;14.61;64.29;97443.00;5057809;28;19939;-58
2023/05/15 07:26:42;;;;;;;;;;;;;;;14.79;64.22;97443.47;5047086;28;19951;-60
2023/05/15 07:29:44;;;;;;;;;;;;;;;15.02;63.12;97447.22;5070593;28;19931;-62
2023/05/15 07:32:32;;;;;;;;;;;;;;;15.27;61.48;97447.03;5047770;28;19935;-60
2023/05/15 07:35:21;;;;;;;;;;;;;;;15.46;60.82;97447.94;5061443;28;19939;-58
2023/05/15 07:38:09;;;;;;;;;;;;;;;15.83;60.51;97444.09;5050763;28;20571;-58
2023/05/15 07:40:59;;;;;;;;;;;;;;;15.91;59.49;97421.19;5060969;28;19946;-59
2023/05/15 07:43:48;;;;;;;;;;;;;;;15.83;59.16;97438.63;5043443;28;19933;-59
2023/05/15 07:46:37;;;;;;;;;;;;;;;15.74;59.46;97447.03;5051619;28;20042;-60
2023/05/15 07:49:25;;;;;;;;;;;;;;;15.82;59.43;97451.53;5067915;28;19935;-60
2023/05/15 07:52:15;;;;;;;;;;;;;;;15.89;59.81;97451.69;5043377;28;19925;-58
2023/05/15 07:55:04;;;;;;;;;;;;;;;16.00;59.29;97445.66;5044415;28;20115;-59
2023/05/15 07:57:54;;;;;;;;;;;;;;;16.20;59.01;97445.31;5043132;28;20635;-57
2023/05/15 08:00:42;;;;;;;;;;;;;;;16.19;59.00;97432.78;5054606;28;19978;-57
2023/05/15 08:03:31;;;;;;;;;;;;;;;16.33;58.47;97436.97;5048361;28;19935;-60
2023/05/15 08:06:19;;;;;;;;;;;;;;;16.21;58.17;97440.63;5043657;28;19958;-60
2023/05/15 08:09:07;;;;;;;;;;;;;;;16.00;57.98;97432.75;5041298;28;20032;-57
2023/05/15 08:11:56;;;;;;;;;;;;;;;15.87;58.19;97434.81;5043256;28;19943;-60
2023/05/15 08:14:46;;;;;;;;;;;;;;;15.83;59.28;97441.38;5061766;28;20157;-57
2023/05/15 08:17:34;;;;;;;;;;;;;;;16.12;58.31;97427.13;5060136;28;19935;-59
2023/05/15 08:20:23;;;;;;;;;;;;;;;16.22;58.24;97434.78;5059061;28;19938;-58
2023/05/15 08:23:11;;;;;;;;;;;;;;;16.11;57.38;97431.03;5042346;28;19943;-58
2023/05/15 08:26:03;;;;;;;;;;;;;;;16.39;57.24;97435.50;5058532;28;19957;-58
2023/05/15 08:28:51;;;;;;;;;;;;;;;16.59;55.84;97428.88;5067954;28;19946;-61
2023/05/15 08:31:42;;;;;;;;;;;;;;;16.74;55.56;97430.75;5056789;28;19931;-59
2023/05/15 08:34:30;;;;;;;;;;;;;;;16.89;55.18;97426.34;5051140;28;19942;-58
2023/05/15 08:37:18;;;;;;;;;;;;;;;17.12;54.49;97422.81;5057299;28;19932;-58
2023/05/15 08:40:08;;;;;;;;;;;;;;;17.34;52.65;97423.97;5045367;28;19946;-57
2023/05/15 08:42:56;;;;;;;;;;;;;;;17.38;52.89;97414.63;5059128;28;20026;-57
2023/05/15 08:45:44;;;;;;;;;;;;;;;17.32;52.83;97421.59;5066332;28;19955;-60
2023/05/15 08:48:35;;;;;;;;;;;;;;;17.43;51.79;97419.00;5055169;28;19935;-59
2023/05/15 08:51:23;;;;;;;;;;;;;;;17.85;50.82;97420.84;5079793;28;19921;-64
2023/05/15 08:54:12;;;;;;;;;;;;;;;17.38;52.37;97413.84;5059443;28;19925;-58
2023/05/15 08:57:00;;;;;;;;;;;;;;;16.89;53.13;97418.09;5062455;28;19936;-58
2023/05/15 08:59:48;;;;;;;;;;;;;;;16.47;52.76;97423.53;5061312;28;19939;-59
2023/05/15 09:02:37;;;;;;;;;;;;;;;16.30;53.49;97416.56;5049022;28;19935;-57
2023/05/15 09:05:27;;;;;;;;;;;;;;;16.56;52.29;97417.81;5046582;28;19935;-58
2023/05/15 09:08:16;;;;;;;;;;;;;;;16.81;50.87;97393.63;5073919;28;20033;-58
2023/05/15 09:11:06;;;;;;;;;;;;;;;17.19;49.69;97406.44;5054148;28;19939;-58
2023/05/15 09:13:57;;;;;;;;;;;;;;;17.70;48.51;97403.34;5047456;28;20319;-60
2023/05/15 09:16:45;;;;;;;;;;;;;;;17.84;47.98;97402.75;5053786;28;19994;-58
2023/05/15 09:19:34;;;;;;;;;;;;;;;18.06;47.70;97404.66;5062936;28;19931;-57
2023/05/15 09:22:24;;;;;;;;;;;;;;;17.91;47.90;97391.88;5066987;28;19962;-58
2023/05/15 09:25:13;;;;;;;;;;;;;;;17.59;49.36;97399.63;5097179;27;19936;-57
2023/05/15 09:28:02;;;;;;;;;;;;;;;17.63;49.36;97392.22;5066360;28;19925;-59
2023/05/15 09:30:51;;;;;;;;;;;;;;;17.63;48.97;97390.28;5067600;28;19931;-59
2023/05/15 09:33:41;;;;;;;;;;;;;;;17.73;47.54;97388.88;5079336;28;19938;-58
2023/05/15 09:36:32;;;;;;;;;;;;;;;17.86;44.83;97382.00;5071575;28;20009;-58
2023/05/15 09:39:23;;;;;;;;;;;;;;;17.99;44.92;97388.06;5069697;28;19930;-58
2023/05/15 09:42:12;;;;;;;;;;;;;;;18.20;44.62;97387.53;5084241;28;19935;-58
2023/05/15 09:45:00;;;;;;;;;;;;;;;18.65;44.64;97389.25;5074423;28;20084;-58
2023/05/15 09:47:49;;;;;;;;;;;;;;;19.00;44.17;97386.06;5072073;28;19947;-59
2023/05/15 09:50:38;;;;;;;;;;;;;;;19.18;43.40;97383.50;5072717;28;19930;-58
2023/05/15 09:53:30;;;;;;;;;;;;;;;19.34;42.32;97384.03;5081246;28;20426;-59
2023/05/15 09:56:20;;;;;;;;;;;;;;;19.08;42.90;97375.94;5076763;28;20359;-58
2023/05/15 09:59:10;;;;;;;;;;;;;;;18.24;46.05;97389.16;5084782;28;20430;-58
2023/05/15 10:01:58;;;;;;;;;;;;;;;17.85;47.68;97394.16;5081577;28;20016;-59
2023/05/15 10:04:47;;;;;;;;;;;;;;;17.57;48.21;97402.75;5085543;28;20037;-57
2023/05/15 10:07:36;;;;;;;;;;;;;;;17.34;54.68;97405.53;5084517;28;20624;-60
2023/05/15 10:10:24;;;;;;;;;;;;;;;17.00;58.13;97413.59;5083370;28;19935;-58
2023/05/15 10:13:14;;;;;;;;;;;;;;;16.77;59.65;97410.03;5075523;28;19938;-59
2023/05/15 10:16:03;;;;;;;;;;;;;;;16.67;58.02;97416.06;5084754;28;19939;-61
2023/05/15 10:18:51;;;;;;;;;;;;;;;16.42;55.30;97419.13;5083604;28;19939;-58
2023/05/15 10:21:40;;;;;;;;;;;;;;;16.18;53.49;97425.69;5083548;28;19924;-61
2023/05/15 10:24:29;;;;;;;;;;;;;;;16.05;54.65;97424.25;5084338;28;19931;-59
2023/05/15 10:27:23;;;;;;;;;;;;;;;15.92;55.81;97414.56;5081397;28;19924;-57
2023/05/15 10:30:13;;;;;;;;;;;;;;;15.81;56.19;97406.09;5077030;28;19952;-60
2023/05/15 10:33:04;;;;;;;;;;;;;;;15.77;57.04;97415.41;5074703;28;19938;-59
2023/05/15 10:35:52;;;;;;;;;;;;;;;15.74;57.00;97410.63;5084592;28;19964;-58
2023/05/15 10:38:41;;;;;;;;;;;;;;;15.72;57.62;97413.75;5083739;28;19920;-59
2023/05/15 10:41:29;;;;;;;;;;;;;;;15.76;58.42;97411.06;5071995;28;19956;-60
2023/05/15 10:44:17;;;;;;;;;;;;;;;15.71;56.94;97402.00;5080691;28;19938;-58
2023/05/15 10:47:07;;;;;;;;;;;;;;;15.70;57.86;97400.38;5070831;28;20046;-59
2023/05/15 10:49:56;;;;;;;;;;;;;;;15.70;58.78;97394.91;5079764;28;19943;-59
2023/05/15 10:52:44;;;;;;;;;;;;;;;15.71;59.81;97401.19;5085347;28;19938;-59
2023/05/15 10:55:32;;;;;;;;;;;;;;;15.68;57.44;97382.75;5084255;28;20307;-59
2023/05/15 10:58:22;;;;;;;;;;;;;;;15.71;56.89;97385.56;5083055;28;20463;-60
2023/05/15 11:01:17;;;;;;;;;;;;;;;15.75;56.31;97377.41;5083457;28;19965;-60
2023/05/15 11:04:09;;;;;;;;;;;;;;;15.83;55.29;97372.91;5081577;28;19920;-58
2023/05/15 11:07:11;;;;;;;;;;;;;;;15.90;54.17;97370.31;5072947;28;19968;-59
2023/05/15 11:10:00;;;;;;;;;;;;;;;16.13;55.41;97370.38;5067977;28;20721;-59
2023/05/15 11:12:56;;;;;;;;;;;;;;;16.40;53.45;97372.09;5075120;28;20475;-60
2023/05/15 11:15:47;;;;;;;;;;;;;;;16.71;48.97;97362.91;5078054;28;19942;-58
2023/05/15 11:18:37;;;;;;;;;;;;;;;17.09;48.13;97355.69;5084651;28;19945;-59
2023/05/15 11:21:28;;;;;;;;;;;;;;;17.59;48.37;97359.22;5066248;28;20045;-61
2023/05/15 11:24:16;;;;;;;;;;;;;;;17.89;47.94;97351.03;5071716;28;19950;-57
2023/05/15 11:27:05;;;;;;;;;;;;;;;17.84;47.44;97343.09;5078761;28;20586;-58
2023/05/15 11:30:02;;;;;;;;;;;;;;;17.78;49.10;97333.59;5082780;28;19934;-57
2023/05/15 11:32:52;;;;;;;;;;;;;;;17.81;48.67;97327.38;5077481;28;19941;-59
2023/05/15 11:35:44;;;;;;;;;;;;;;;17.80;47.80;97328.53;5066233;28;20049;-59
2023/05/15 11:38:39;;;;;;;;;;;;;;;17.80;47.94;97321.09;5105454;27;20656;-59
2023/05/15 11:41:31;;;;;;;;;;;;;;;17.96;47.99;97311.88;5084239;28;20369;-61
2023/05/15 11:44:20;;;;;;;;;;;;;;;18.01;49.06;97315.06;5086378;28;19999;-59
2023/05/15 11:47:09;;;;;;;;;;;;;;;18.21;46.07;97314.88;5079593;28;19962;-61
2023/05/15 11:49:58;;;;;;;;;;;;;;;18.30;47.03;97316.19;5097182;28;20335;-64
2023/05/15 11:52:46;;;;;;;;;;;;;;;18.37;46.13;97309.16;5089423;28;19973;-70
2023/05/15 11:55:36;;;;;;;;;;;;;;;18.44;47.19;97312.00;5080537;28;20609;-59
2023/05/15 11:58:25;;;;;;;;;;;;;;;18.43;45.70;97313.16;5077497;28;19920;-58
2023/05/15 12:01:13;;;;;;;;;;;;;;;18.38;44.87;97311.56;5081762;28;19924;-58
2023/05/15 12:04:01;;;;;;;;;;;;;;;18.40;46.52;97316.69;5073061;28;20445;-61
2023/05/15 12:06:50;;;;;;;;;;;;;;;18.36;46.19;97307.59;5071771;28;19932;-59
2023/05/15 12:09:39;;;;;;;;;;;;;;;18.26;45.25;97307.09;5083492;28;19920;-58
2023/05/15 12:12:31;;;;;;;;;;;;;;;18.47;44.07;97309.28;5075378;28;19924;-59
2023/05/15 12:15:19;;;;;;;;;;;;;;;18.40;43.10;97302.91;5076080;28;19952;-59
2023/05/15 12:18:07;;;;;;;;;;;;;;;18.35;43.44;97300.50;5073225;28;19927;-58
2023/05/15 12:20:56;;;;;;;;;;;;;;;18.62;43.45;97296.47;5087068;28;20019;-58
2023/05/15 12:23:49;;;;;;;;;;;;;;;18.78;42.28;97299.00;5078392;28;19973;-60
2023/05/15 12:26:50;;;;;;;;;;;;;;;18.84;42.32;97297.47;5083588;28;20105;-60
2023/05/15 12:29:40;;;;;;;;;;;;;;;19.08;42.28;97293.34;5080898;28;19993;-60
2023/05/15 12:32:28;;;;;;;;;;;;;;;19.03;43.23;97282.69;5066031;28;20018;-58
2023/05/15 12:35:16;;;;;;;;;;;;;;;18.46;44.84;97309.66;5069590;28;19970;-59
2023/05/15 12:38:04;;;;;;;;;;;;;;;18.09;47.13;97309.66;5074497;28;20526;-59
2023/05/15 12:40:56;;;;;;;;;;;;;;;17.47;49.31;97329.22;5083453;28;20399;-66
2023/05/15 12:43:44;;;;;;;;;;;;;;;17.06;52.53;97331.75;5083023;28;19939;-62
2023/05/15 12:46:34;;;;;;;;;;;;;;;16.71;53.64;97334.69;5066400;28;20409;-59
2023/05/15 12:49:23;;;;;;;;;;;;;;;16.66;54.80;97333.00;5073894;28;20347;-59
2023/05/15 12:52:12;;;;;;;;;;;;;;;16.58;55.82;97336.00;5054885;28;20041;-61
2023/05/15 12:55:00;;;;;;;;;;;;;;;16.56;54.97;97330.88;5075376;28;20024;-58
2023/05/15 12:57:48;;;;;;;;;;;;;;;16.62;54.79;97334.09;5066600;28;20346;-58
2023/05/15 13:00:37;;;;;;;;;;;;;;;16.73;53.35;97333.19;5076368;28;20315;-60
2023/05/15 13:03:27;;;;;;;;;;;;;;;16.80;53.31;97328.97;5072685;28;20506;-58
2023/05/15 13:06:16;;;;;;;;;;;;;;;16.83;53.13;97329.03;5074310;28;19956;-57
2023/05/15 13:09:04;;;;;;;;;;;;;;;16.97;52.83;97332.00;5072854;28;19958;-59
2023/05/15 13:11:54;;;;;;;;;;;;;;;17.11;52.58;97327.91;5080669;28;20008;-58
2023/05/15 13:14:45;;;;;;;;;;;;;;;17.31;51.72;97323.91;5086244;28;20298;-58
2023/05/15 13:17:34;;;;;;;;;;;;;;;17.65;51.51;97319.28;5082619;28;19930;-60
2023/05/15 13:20:24;;;;;;;;;;;;;;;17.92;52.41;97311.03;5085387;28;19920;-59
2023/05/15 13:23:14;;;;;;;;;;;;;;;18.33;48.22;97314.66;5056453;28;19934;-57
2023/05/15 13:26:03;;;;;;;;;;;;;;;18.56;44.56;97295.22;5051814;28;19934;-59
2023/05/15 13:28:51;;;;;;;;;;;;;;;18.72;45.22;97298.53;5066232;28;19947;-59
2023/05/15 13:31:39;;;;;;;;;;;;;;;18.95;43.89;97301.09;5045480;28;19939;-61
2023/05/15 13:34:27;;;;;;;;;;;;;;;19.03;44.53;97299.19;5054748;28;19989;-59
2023/05/15 13:37:17;;;;;;;;;;;;;;;19.05;43.12;97297.63;5052530;28;19920;-58
2023/05/15 13:40:08;;;;;;;;;;;;;;;18.98;42.88;97296.81;5052228;28;19939;-59
2023/05/15 13:42:56;;;;;;;;;;;;;;;18.89;42.26;97293.56;5053590;28;20033;-58
2023/05/15 13:45:45;;;;;;;;;;;;;;;18.84;42.89;97301.00;5068620;28;19950;-61
2023/05/15 13:48:33;;;;;;;;;;;;;;;18.91;41.62;97307.72;5046506;28;20343;-59
2023/05/15 13:51:22;;;;;;;;;;;;;;;19.04;43.35;97304.31;5060008;28;20442;-58
2023/05/15 13:54:12;;;;;;;;;;;;;;;19.03;41.95;97304.72;5047606;28;19935;-58
2023/05/15 13:57:00;;;;;;;;;;;;;;;19.04;42.52;97296.06;5060310;28;19935;-59
2023/05/15 13:59:48;;;;;;;;;;;;;;;18.99;41.52;97292.88;5058041;28;19943;-59
2023/05/15 14:02:36;;;;;;;;;;;;;;;19.02;41.76;97289.38;5064817;28;20601;-57
2023/05/15 14:05:24;;;;;;;;;;;;;;;18.93;42.13;97286.13;5066074;28;19935;-57
2023/05/15 14:08:14;;;;;;;;;;;;;;;19.04;42.14;97292.50;5061125;28;19947;-59
2023/05/15 14:11:04;;;;;;;;;;;;;;;19.15;42.61;97293.38;5045040;28;19957;-59
2023/05/15 14:13:52;;;;;;;;;;;;;;;19.21;40.61;97299.31;5046584;28;20021;-57
2023/05/15 14:16:40;;;;;;;;;;;;;;;19.25;41.87;97289.13;5055533;28;19992;-58
2023/05/15 14:19:28;;;;;;;;;;;;;;;19.34;41.73;97295.09;5043284;28;20382;-60
2023/05/15 14:22:18;;;;;;;;;;;;;;;19.35;42.18;97296.66;5077255;28;19955;-62
2023/05/15 14:25:07;;;;;;;;;;;;;;;19.36;41.33;97299.03;5081136;28;20440;-57
2023/05/15 14:27:56;;;;;;;;;;;;;;;19.40;41.58;97296.31;5079907;28;19953;-59
2023/05/15 14:30:45;;;;;;;;;;;;;;;19.47;41.51;97287.28;5084619;28;19934;-59
2023/05/15 14:33:33;;;;;;;;;;;;;;;19.56;41.81;97296.00;5085325;28;20646;-61
2023/05/15 14:36:21;;;;;;;;;;;;;;;19.64;41.66;97286.63;5083868;28;19993;-60
2023/05/15 14:39:09;;;;;;;;;;;;;;;19.70;41.35;97289.81;5082818;28;20009;-58
2023/05/15 14:41:57;;;;;;;;;;;;;;;19.71;40.73;97296.88;5084537;28;19939;-58